Aviation Digital Data Service (ADDS)

Output produced by TAFs form (1147 UTC 27 May 2017)
found at http://www.aviationweather.gov/adds/tafs/
 
METAR text: LYBE 271130Z 01010KT 320V040 CAVOK 23/10 Q1018 NOSIG
Conditions at: LYBE (BELGRADE/SURCIN , CS) observed 1130 UTC 27 May 2017
Temperature: 23.0°C (73°F)
Dewpoint: 10.0°C (50°F) [RH = 44%]
Pressure (altimeter): 30.06 inches Hg (1018.0 mb)
Winds: from the N (10 degrees) at 12 MPH (10 knots; 5.2 m/s)
Visibility: 6 or more miles (10+ km)
Ceiling: ceiling and visibility are OK
Clouds: unknown
Weather: no significant weather observed at this time

Forecast for: LYBE (BELGRADE/SURCIN , CS)
Text: TAF LYBE 271100Z 2712/2812 35015KT 9999 SCT040 TX25/2713Z TN11/2803Z
Forecast period: 1200 to 1800 UTC 27 May 2017
Forecast type: FROM: standard forecast or significant change
Winds: from the N (350 degrees) at 17 MPH (15 knots; 7.8 m/s)
Visibility: 6 or more miles (10+ km)
Clouds: scattered clouds at 4000 feet AGL
Weather: no significant weather forecast for this period
Text: BECMG 2718/2720 26005KT
Forecast period: 1800 UTC 27 May 2017 to 1200 UTC 28 May 2017
Forecast type: BECOMING: Conditions expected to become as follows by 2000 UTC 27 May 2017
Winds: from the W (260 degrees) at 6 MPH (5 knots; 2.6 m/s)
Visibility: 6 or more miles (10+ km)
Clouds: scattered clouds at 4000 feet AGL
Weather: no significant weather forecast for this period